Rocky Butte, Washington
Current Conditions -  °F | °C
As of 4:53 PM on Friday 24 Oct 2014 (Local Time) from KOMK Reporting Station
Clear Clear  
Wind Chill: 52°   Ceiling: Unl
Heat Index: 52°   Visibility: 10mi
Dew Point: 38°   Wind: 0mph
Humidity: 59%   Direction: NA
Pressure: 30.05"   Gusts: NA
Location:  48.2133°N, 119.829°W
Report Text: KOMK 242353Z AUTO 00000KT 10SM CLR 11/03 A3005 RMK AO2 SLP182 T01110033 10122 20083 56008
Loading
Personal Weather Stations






























Interactive Weather Map
Tropical Storm Tracking
New forecast layout! Learn more

10-Day Weather Forecast

Advertisements
Track Severe Weather on mobile